createdAt,value
2022-12-18T00:01:55.651Z,28.95
2022-12-18T00:04:26.137Z,27.65
2022-12-18T00:06:54.707Z,29.35
2022-12-18T00:09:24.648Z,27.25
2022-12-18T00:11:54.124Z,28.10
2022-12-18T00:14:22.120Z,27.95
2022-12-18T00:16:50.166Z,25.65
2022-12-18T00:19:19.085Z,29.00
2022-12-18T00:21:47.649Z,29.40
2022-12-18T00:24:15.610Z,27.17
2022-12-18T00:26:44.699Z,28.63
2022-12-18T00:29:15.586Z,29.02
2022-12-18T00:31:45.557Z,28.95
2022-12-18T00:34:14.061Z,27.02
2022-12-18T00:36:42.789Z,28.13
2022-12-18T00:39:12.283Z,27.20
2022-12-18T00:41:57.868Z,27.00
2022-12-18T00:44:28.392Z,26.35
2022-12-18T00:46:56.304Z,27.90
2022-12-18T00:49:24.228Z,25.73
2022-12-18T00:51:52.861Z,26.63
2022-12-18T00:54:20.848Z,26.70
2022-12-18T00:56:49.593Z,28.95
2022-12-18T00:59:19.440Z,28.08
2022-12-18T01:01:49.460Z,28.58
2022-12-18T01:04:17.530Z,28.23
2022-12-18T01:06:47.098Z,27.65
2022-12-18T01:09:15.527Z,27.15
2022-12-18T01:11:43.665Z,26.27
2022-12-18T01:14:12.589Z,26.30
2022-12-18T01:16:40.615Z,26.55
2022-12-18T01:19:10.164Z,26.67
2022-12-18T01:21:38.198Z,27.17
2022-12-18T01:24:07.190Z,28.88
2022-12-18T01:26:35.384Z,27.05
2022-12-18T01:29:03.364Z,27.73
2022-12-18T01:31:33.317Z,26.02
2022-12-18T01:34:04.516Z,27.52
2022-12-18T01:36:35.334Z,28.40
2022-12-18T01:39:05.228Z,27.80
2022-12-18T01:41:48.485Z,27.38
2022-12-18T01:44:55.181Z,29.63
2022-12-18T01:47:27.082Z,29.92
2022-12-18T01:49:56.397Z,24.33
2022-12-18T01:52:27.750Z,29.13
2022-12-18T01:54:57.390Z,29.83
2022-12-18T01:57:28.239Z,29.63
2022-12-18T02:00:01.761Z,29.88
2022-12-18T02:02:42.040Z,28.67
2022-12-18T02:05:11.616Z,31.23
2022-12-18T02:07:54.048Z,29.83
2022-12-18T02:10:28.560Z,30.97
2022-12-18T02:13:04.774Z,29.98
2022-12-18T02:15:38.616Z,31.15
2022-12-18T02:18:11.008Z,30.00
2022-12-18T02:20:44.340Z,30.48
2022-12-18T02:24:33.906Z,30.88
2022-12-18T02:27:09.765Z,31.15
2022-12-18T02:29:42.431Z,32.05
2022-12-18T02:32:17.665Z,30.13
2022-12-18T02:34:50.503Z,31.48
2022-12-18T02:37:28.611Z,32.35
2022-12-18T02:40:07.370Z,31.95
2022-12-18T02:42:43.631Z,33.28
2022-12-18T02:45:15.768Z,31.65
2022-12-18T02:47:51.213Z,32.65
2022-12-18T02:50:40.229Z,31.35
2022-12-18T02:53:34.136Z,33.17
2022-12-18T02:59:03.421Z,32.50
2022-12-18T03:01:59.901Z,31.60
2022-12-18T03:04:41.114Z,32.53
2022-12-18T03:07:14.688Z,31.75
2022-12-18T03:09:49.954Z,30.33
2022-12-18T03:12:29.251Z,32.33
2022-12-18T03:15:06.709Z,29.40
2022-12-18T03:17:39.345Z,30.55
2022-12-18T03:20:14.195Z,32.15
2022-12-18T03:22:46.830Z,32.22
2022-12-18T03:25:18.909Z,30.90
2022-12-18T03:27:58.594Z,30.88
2022-12-18T03:30:38.114Z,31.67
2022-12-18T03:33:13.059Z,31.60
2022-12-18T03:35:49.626Z,31.45
2022-12-18T03:41:00.089Z,32.72
2022-12-18T03:43:39.580Z,31.90
2022-12-18T03:46:18.091Z,30.15
2022-12-18T03:48:51.871Z,30.02
2022-12-18T03:51:41.751Z,29.80
2022-12-18T03:54:12.549Z,31.15
2022-12-18T03:57:00.667Z,30.63
2022-12-18T03:59:37.192Z,28.55
2022-12-18T04:02:18.409Z,31.35
2022-12-18T04:04:59.326Z,29.70
2022-12-18T04:07:41.543Z,30.90
2022-12-18T04:10:14.739Z,29.92
2022-12-18T04:12:48.862Z,28.48
2022-12-18T04:15:19.499Z,31.05
2022-12-18T04:17:55.003Z,29.05
2022-12-18T04:20:31.840Z,28.48
2022-12-18T04:23:01.046Z,28.80
2022-12-18T04:25:29.474Z,28.15
2022-12-18T04:28:08.126Z,28.92
2022-12-18T04:30:38.010Z,28.90
2022-12-18T04:33:15.721Z,28.30
2022-12-18T04:35:47.969Z,26.05
2022-12-18T04:38:21.754Z,26.23
2022-12-18T04:40:56.569Z,25.98
2022-12-18T04:43:32.825Z,26.57
2022-12-18T04:46:16.401Z,26.05
2022-12-18T04:48:58.375Z,20.20
2022-12-18T04:51:38.671Z,26.35
2022-12-18T04:57:07.013Z,25.02
2022-12-18T04:59:36.322Z,26.20
2022-12-18T05:02:06.532Z,25.63
2022-12-18T05:04:43.939Z,24.75
2022-12-18T05:07:13.766Z,24.65
2022-12-18T05:09:44.041Z,24.75
2022-12-18T05:12:13.221Z,24.70
2022-12-18T05:14:42.263Z,25.67
2022-12-18T05:17:23.686Z,24.25
2022-12-18T05:20:01.209Z,26.02
2022-12-18T05:22:33.648Z,25.77
2022-12-18T05:25:02.809Z,25.40
2022-12-18T05:27:30.908Z,23.85
2022-12-18T05:30:00.585Z,23.38
2022-12-18T05:32:28.766Z,23.35
2022-12-18T05:35:03.660Z,21.95
2022-12-18T05:37:31.795Z,23.48
2022-12-18T05:40:02.769Z,23.92
2022-12-18T05:42:33.575Z,23.55
2022-12-18T05:45:04.931Z,24.15
2022-12-18T05:47:37.437Z,24.73
2022-12-18T05:50:12.838Z,24.42
2022-12-18T05:52:42.014Z,25.20
2022-12-18T05:55:13.476Z,25.77
2022-12-18T05:57:44.114Z,23.83
2022-12-18T06:00:16.724Z,24.80
2022-12-18T06:02:48.262Z,23.23
2022-12-18T06:05:17.957Z,22.50
2022-12-18T06:07:49.788Z,23.95
2022-12-18T06:10:18.361Z,25.58
2022-12-18T06:12:46.431Z,25.27
2022-12-18T06:15:16.035Z,24.00
2022-12-18T06:17:46.064Z,24.65
2022-12-18T06:20:15.873Z,24.63
2022-12-18T06:22:47.733Z,24.73
2022-12-18T06:25:16.213Z,25.40
2022-12-18T06:27:48.458Z,25.02
2022-12-18T06:30:20.770Z,26.58
2022-12-18T06:32:56.327Z,24.55
2022-12-18T06:35:26.438Z,22.85
2022-12-18T06:37:58.187Z,25.67
2022-12-18T06:40:26.136Z,23.85
2022-12-18T06:43:11.980Z,25.58
2022-12-18T06:45:41.282Z,24.63
2022-12-18T06:48:09.712Z,24.13
2022-12-18T06:50:38.303Z,23.88
2022-12-18T06:53:08.447Z,24.70
2022-12-18T06:55:37.525Z,24.70
2022-12-18T06:58:06.109Z,23.95
2022-12-18T07:00:34.566Z,24.77
2022-12-18T07:03:02.794Z,23.98
2022-12-18T07:05:36.622Z,25.27
2022-12-18T07:08:05.383Z,24.38
2022-12-18T07:10:35.429Z,25.48
2022-12-18T07:13:03.489Z,23.27
2022-12-18T07:15:32.799Z,24.42
2022-12-18T07:18:00.866Z,23.67
2022-12-18T07:20:32.186Z,24.02
2022-12-18T07:23:05.812Z,24.40
2022-12-18T07:25:37.498Z,23.13
2022-12-18T07:28:05.984Z,23.73
2022-12-18T07:30:34.280Z,23.92
2022-12-18T07:33:02.702Z,24.95
2022-12-18T07:35:30.739Z,24.67
2022-12-18T07:37:59.591Z,23.23
2022-12-18T07:40:27.666Z,22.42
2022-12-18T07:42:57.376Z,23.73
2022-12-18T07:45:25.571Z,23.55
2022-12-18T07:47:53.637Z,23.88
2022-12-18T07:50:22.202Z,22.58
2022-12-18T07:52:50.511Z,23.48
2022-12-18T07:55:21.317Z,23.42
2022-12-18T07:57:53.296Z,23.75
2022-12-18T08:00:25.406Z,24.80
2022-12-18T08:02:54.436Z,23.58
2022-12-18T08:05:23.329Z,23.55
2022-12-18T08:07:51.484Z,22.15
2022-12-18T08:10:22.058Z,22.63
2022-12-18T08:12:52.872Z,22.05
2022-12-18T08:15:21.228Z,23.02
2022-12-18T08:17:50.640Z,22.33
2022-12-18T08:20:19.270Z,21.65
2022-12-18T08:22:47.292Z,21.40
2022-12-18T08:25:15.357Z,22.83
2022-12-18T08:27:43.695Z,23.30
2022-12-18T08:30:14.477Z,21.70
2022-12-18T08:32:42.525Z,23.50
2022-12-18T08:35:12.975Z,21.77
2022-12-18T08:37:41.514Z,22.27
2022-12-18T08:40:12.091Z,21.05
2022-12-18T08:42:57.916Z,21.73
2022-12-18T08:45:27.273Z,21.35
2022-12-18T08:47:55.812Z,20.83
2022-12-18T08:50:27.011Z,20.50
2022-12-18T08:52:55.285Z,20.23
2022-12-18T08:55:23.272Z,20.80
2022-12-18T08:57:51.329Z,21.70
2022-12-18T09:00:19.870Z,22.15
2022-12-18T09:02:48.730Z,21.02
2022-12-18T09:05:19.096Z,22.38
2022-12-18T09:07:48.517Z,22.40
2022-12-18T09:10:16.672Z,21.27
2022-12-18T09:12:47.101Z,21.95
2022-12-18T09:15:16.481Z,19.58
2022-12-18T09:17:48.674Z,21.13
2022-12-18T09:20:16.836Z,21.15
2022-12-18T09:22:50.332Z,20.50
2022-12-18T09:25:20.227Z,20.00
2022-12-18T09:27:50.514Z,19.90
2022-12-18T09:30:19.380Z,19.25
2022-12-18T09:32:47.980Z,19.35
2022-12-18T09:35:17.759Z,20.08
2022-12-18T09:37:48.191Z,22.00
2022-12-18T09:40:20.739Z,22.65
2022-12-18T09:42:53.170Z,22.27
2022-12-18T09:45:24.199Z,20.27
2022-12-18T09:47:56.832Z,21.65
2022-12-18T09:50:31.698Z,22.02
2022-12-18T09:53:10.158Z,22.38
2022-12-18T09:55:43.535Z,22.88
2022-12-18T09:58:21.739Z,22.48
2022-12-18T10:00:50.215Z,22.38
2022-12-18T10:03:18.496Z,22.35
2022-12-18T10:06:00.457Z,20.25
2022-12-18T10:08:41.080Z,21.30
2022-12-18T10:11:31.039Z,21.25
2022-12-18T10:14:07.352Z,21.60
2022-12-18T10:16:40.851Z,22.85
2022-12-18T10:19:34.900Z,20.77
2022-12-18T10:22:16.012Z,19.95
2022-12-18T10:24:52.880Z,20.35
2022-12-18T10:27:25.221Z,19.33
2022-12-18T10:29:55.975Z,17.63
2022-12-18T10:32:26.385Z,21.08
2022-12-18T10:35:00.017Z,20.95
2022-12-18T10:37:31.947Z,20.80
2022-12-18T10:40:21.803Z,22.70
2022-12-18T10:43:08.713Z,21.10
2022-12-18T10:45:37.882Z,19.95
2022-12-18T10:48:06.839Z,19.15
2022-12-18T10:53:30.357Z,15.32
2022-12-18T10:56:06.095Z,19.15
2022-12-18T10:58:35.271Z,18.90
2022-12-18T11:01:13.675Z,18.35
2022-12-18T11:03:44.382Z,19.25
2022-12-18T11:06:14.550Z,20.75
2022-12-18T11:08:44.734Z,18.52
2022-12-18T11:11:22.795Z,19.58
2022-12-18T11:14:01.960Z,19.38
2022-12-18T11:16:32.799Z,18.63
2022-12-18T11:19:33.069Z,18.80
2022-12-18T11:22:04.844Z,18.73
2022-12-18T11:24:35.654Z,18.55
2022-12-18T11:27:10.415Z,19.05
2022-12-18T11:29:46.618Z,18.70
2022-12-18T11:32:29.879Z,19.08
2022-12-18T11:35:07.963Z,17.77
2022-12-18T11:37:37.292Z,17.95
2022-12-18T11:40:12.708Z,17.42
2022-12-18T11:42:51.356Z,18.60
2022-12-18T11:45:29.824Z,18.48
2022-12-18T11:48:03.454Z,18.60
2022-12-18T11:50:41.967Z,17.85
2022-12-18T11:53:13.942Z,17.85
2022-12-18T11:55:49.886Z,20.17
2022-12-18T11:58:38.989Z,17.67
2022-12-18T12:01:17.489Z,18.58
2022-12-18T12:04:01.558Z,19.70
2022-12-18T12:06:39.627Z,19.27
2022-12-18T12:09:16.791Z,19.92
2022-12-18T12:11:58.170Z,18.85
2022-12-18T12:14:47.339Z,18.17
2022-12-18T12:17:26.358Z,18.02
2022-12-18T12:20:03.341Z,17.65
2022-12-18T12:22:41.452Z,17.27
2022-12-18T12:25:37.491Z,17.83
2022-12-18T12:28:20.894Z,18.45
2022-12-18T12:31:00.610Z,17.58
2022-12-18T12:33:42.241Z,16.75
2022-12-18T12:36:24.970Z,13.35
2022-12-18T12:38:59.704Z,17.30
2022-12-18T12:41:50.291Z,17.27
2022-12-18T12:44:24.247Z,18.23
2022-12-18T12:46:57.272Z,18.40
2022-12-18T12:49:40.281Z,18.85
2022-12-18T12:52:17.277Z,20.98
2022-12-18T12:54:56.690Z,18.67
2022-12-18T12:57:35.921Z,17.75
2022-12-18T13:00:11.100Z,17.48
2022-12-18T13:02:52.773Z,17.88
2022-12-18T13:05:29.747Z,13.88
2022-12-18T13:08:01.567Z,17.75
2022-12-18T13:10:37.587Z,19.08
2022-12-18T13:13:09.382Z,18.92
2022-12-18T13:15:42.512Z,18.80
2022-12-18T13:18:23.663Z,15.25
2022-12-18T13:21:14.596Z,20.00
2022-12-18T13:23:46.021Z,19.50
2022-12-18T13:26:34.106Z,17.27
2022-12-18T13:29:08.493Z,19.33
2022-12-18T13:32:21.076Z,18.27
2022-12-18T13:35:30.821Z,17.65
2022-12-18T13:37:59.847Z,19.00
2022-12-18T13:40:59.282Z,19.00
2022-12-18T13:43:34.525Z,17.42
2022-12-18T13:46:26.492Z,17.27
2022-12-18T13:48:59.002Z,18.05
2022-12-18T13:51:29.554Z,18.47
2022-12-18T13:54:00.286Z,18.90
2022-12-18T13:56:30.677Z,18.05
2022-12-18T13:59:24.548Z,17.83
2022-12-18T14:01:58.964Z,17.88
2022-12-18T14:04:30.150Z,17.92
2022-12-18T14:07:05.805Z,19.73
2022-12-18T14:09:40.615Z,18.48
2022-12-18T14:12:34.060Z,18.92
2022-12-18T14:17:30.183Z,19.45
2022-12-18T14:20:02.170Z,19.95
2022-12-18T14:22:32.691Z,20.23
2022-12-18T14:25:18.944Z,21.52
2022-12-18T14:27:53.647Z,20.25
2022-12-18T14:30:32.063Z,23.23
2022-12-18T14:33:04.342Z,22.38
2022-12-18T14:35:33.019Z,20.85
2022-12-18T14:38:23.516Z,20.08
2022-12-18T14:40:56.873Z,22.15
2022-12-18T14:43:25.181Z,23.10
2022-12-18T14:45:53.904Z,22.27
2022-12-18T14:48:24.448Z,23.48
2022-12-18T14:51:01.971Z,22.45
2022-12-18T14:53:40.700Z,23.05
2022-12-18T14:56:17.595Z,23.42
2022-12-18T14:58:56.599Z,23.52
2022-12-18T15:01:28.250Z,19.83
2022-12-18T15:03:57.698Z,22.98
2022-12-18T15:06:34.375Z,22.83
2022-12-18T15:09:07.381Z,20.90
2022-12-18T15:11:38.349Z,21.92
2022-12-18T15:14:35.756Z,20.85
2022-12-18T15:17:09.506Z,20.70
2022-12-18T15:19:42.486Z,19.90
2022-12-18T15:22:27.773Z,14.93
2022-12-18T15:24:59.440Z,25.58
2022-12-18T15:27:33.153Z,24.55
2022-12-18T15:30:20.443Z,21.33
2022-12-18T15:32:49.881Z,20.02
2022-12-18T15:35:22.906Z,19.58
2022-12-18T15:37:54.587Z,25.08
2022-12-18T15:40:25.881Z,22.73
2022-12-18T15:43:13.996Z,20.50
2022-12-18T15:45:42.407Z,22.75
2022-12-18T15:48:21.489Z,23.08
2022-12-18T15:50:51.951Z,21.65
2022-12-18T15:53:20.547Z,22.92
2022-12-18T15:56:07.141Z,25.50
2022-12-18T15:58:37.441Z,22.50
2022-12-18T16:01:05.777Z,22.98
2022-12-18T16:03:33.829Z,23.85
2022-12-18T16:06:03.028Z,24.95
2022-12-18T16:08:33.923Z,23.80
2022-12-18T16:11:03.563Z,23.73
2022-12-18T16:13:32.700Z,24.83
2022-12-18T16:16:02.258Z,22.08
2022-12-18T16:18:30.408Z,23.42
2022-12-18T16:20:59.573Z,26.13
2022-12-18T16:23:28.424Z,25.70
2022-12-18T16:25:56.470Z,22.65
2022-12-18T16:28:25.938Z,25.48
2022-12-18T16:30:53.973Z,26.05
2022-12-18T16:33:24.347Z,24.15
2022-12-18T16:35:55.695Z,23.13
2022-12-18T16:38:23.690Z,23.55
2022-12-18T16:41:09.520Z,25.48
2022-12-18T16:43:39.208Z,31.95
2022-12-18T16:46:07.406Z,30.48
2022-12-18T16:48:35.472Z,25.23
2022-12-18T16:51:05.911Z,24.00
2022-12-18T16:53:34.593Z,23.92
2022-12-18T16:56:04.209Z,28.15
2022-12-18T16:58:36.107Z,27.45
2022-12-18T17:01:10.756Z,28.65
2022-12-18T17:03:39.190Z,28.58
2022-12-18T17:06:08.380Z,24.88
2022-12-18T17:08:36.384Z,23.92
2022-12-18T17:11:09.028Z,25.33
2022-12-18T17:13:37.294Z,24.42
2022-12-18T17:16:08.394Z,25.73
2022-12-18T17:18:40.421Z,24.13
2022-12-18T17:21:11.649Z,25.08
2022-12-18T17:23:40.226Z,24.17
2022-12-18T17:26:10.538Z,23.00
2022-12-18T17:28:41.096Z,25.15
2022-12-18T17:31:13.704Z,23.98
2022-12-18T17:33:45.307Z,25.27
2022-12-18T17:36:14.003Z,25.80
2022-12-18T17:38:51.055Z,25.90
2022-12-18T17:41:23.217Z,26.20
2022-12-18T17:43:55.080Z,27.80
2022-12-18T17:46:23.585Z,21.58
2022-12-18T17:48:53.447Z,25.30
2022-12-18T17:51:21.494Z,25.80
2022-12-18T17:53:49.747Z,27.10
2022-12-18T17:56:25.628Z,26.77
2022-12-18T17:59:00.137Z,28.63
2022-12-18T18:01:29.918Z,31.85
2022-12-18T18:04:00.347Z,30.83
2022-12-18T18:06:29.043Z,29.83
2022-12-18T18:08:59.267Z,29.00
2022-12-18T18:11:44.706Z,29.13
2022-12-18T18:14:16.922Z,27.75
2022-12-18T18:16:49.252Z,28.90
2022-12-18T18:19:21.127Z,22.17
2022-12-18T18:21:54.568Z,29.20
2022-12-18T18:24:25.795Z,28.42
2022-12-18T18:26:54.019Z,34.90
2022-12-18T18:29:26.703Z,29.50
2022-12-18T18:31:56.493Z,28.92
2022-12-18T18:34:27.763Z,28.48
2022-12-18T18:36:56.057Z,28.63
2022-12-18T18:39:24.122Z,29.67
2022-12-18T18:41:55.274Z,30.30
2022-12-18T18:44:26.122Z,29.85
2022-12-18T18:46:58.467Z,27.48
2022-12-18T18:49:29.888Z,29.70
2022-12-18T18:51:59.121Z,30.77
2022-12-18T18:54:27.516Z,30.83
2022-12-18T18:57:19.531Z,29.45
2022-12-18T18:59:43.830Z,31.65
2022-12-18T19:02:13.750Z,31.30
2022-12-18T19:04:47.074Z,29.85
2022-12-18T19:07:26.131Z,31.33
2022-12-18T19:10:03.551Z,30.65
2022-12-18T19:12:52.220Z,29.33
2022-12-18T19:15:23.361Z,28.40
2022-12-18T19:17:54.290Z,28.75
2022-12-18T19:20:26.553Z,28.65
2022-12-18T19:22:57.195Z,28.10
2022-12-18T19:25:38.475Z,27.98
2022-12-18T19:28:21.174Z,28.60
2022-12-18T19:30:58.859Z,28.10
2022-12-18T19:33:42.230Z,28.88
2022-12-18T19:36:16.916Z,28.25
2022-12-18T19:38:47.720Z,27.98
2022-12-18T19:41:17.889Z,29.38
2022-12-18T19:43:46.925Z,29.15
2022-12-18T19:46:16.567Z,29.50
2022-12-18T19:48:46.746Z,27.27
2022-12-18T19:51:24.642Z,29.70
2022-12-18T19:53:58.828Z,30.67
2022-12-18T19:56:30.854Z,33.65
2022-12-18T19:59:01.680Z,30.08
2022-12-18T20:01:31.030Z,29.85
2022-12-18T20:04:04.498Z,29.27
2022-12-18T20:06:37.706Z,28.92
2022-12-18T20:11:38.387Z,28.25
2022-12-18T20:14:10.618Z,27.63
2022-12-18T20:16:39.627Z,29.10
2022-12-18T20:19:11.972Z,30.05
2022-12-18T20:21:42.314Z,28.35
2022-12-18T20:24:12.936Z,26.70
2022-12-18T20:26:42.032Z,27.77
2022-12-18T20:29:13.265Z,26.95
2022-12-18T20:31:42.998Z,26.67
2022-12-18T20:34:11.243Z,28.55
2022-12-18T20:36:41.684Z,27.45
2022-12-18T20:39:14.457Z,27.27
2022-12-18T20:41:44.487Z,26.85
2022-12-18T20:44:23.193Z,27.63
2022-12-18T20:46:57.853Z,28.15
2022-12-18T20:49:31.988Z,29.48
2022-12-18T20:52:06.729Z,28.38
2022-12-18T20:54:36.744Z,29.13
2022-12-18T20:59:59.352Z,28.92
2022-12-18T21:02:29.161Z,28.20
2022-12-18T21:04:57.927Z,27.23
2022-12-18T21:07:28.751Z,25.92
2022-12-18T21:10:01.972Z,27.23
2022-12-18T21:12:40.274Z,27.23
2022-12-18T21:15:15.086Z,25.63
2022-12-18T21:17:46.257Z,26.50
2022-12-18T21:20:18.999Z,26.20
2022-12-18T21:22:50.061Z,27.30
2022-12-18T21:25:19.376Z,27.45
2022-12-18T21:27:49.586Z,27.05
2022-12-18T21:30:18.795Z,28.75
2022-12-18T21:32:52.188Z,28.75
2022-12-18T21:35:23.756Z,27.70
2022-12-18T21:37:55.718Z,27.60
2022-12-18T21:40:23.879Z,28.83
2022-12-18T21:43:13.910Z,28.70
2022-12-18T21:45:49.167Z,27.95
2022-12-18T21:48:18.786Z,28.83
2022-12-18T21:50:47.284Z,27.10
2022-12-18T21:53:21.106Z,26.92
2022-12-18T21:56:00.286Z,27.50
2022-12-18T21:58:29.917Z,26.63
2022-12-18T22:00:58.417Z,26.92
2022-12-18T22:03:29.369Z,26.48
2022-12-18T22:06:07.563Z,26.77
2022-12-18T22:08:43.543Z,25.30
2022-12-18T22:11:13.821Z,26.00
2022-12-18T22:13:42.917Z,26.20
2022-12-18T22:16:11.251Z,26.10
2022-12-18T22:18:42.026Z,25.27
2022-12-18T22:21:28.695Z,26.25
2022-12-18T22:24:03.781Z,26.48
2022-12-18T22:26:39.288Z,26.00
2022-12-18T22:29:25.901Z,25.83
2022-12-18T22:31:54.682Z,25.70
2022-12-18T22:34:36.331Z,26.30
2022-12-18T22:37:05.317Z,26.17
2022-12-18T22:39:37.328Z,26.05
2022-12-18T22:42:07.522Z,26.90
2022-12-18T22:44:36.141Z,25.42
2022-12-18T22:47:06.235Z,27.17
2022-12-18T22:49:38.004Z,26.02
2022-12-18T22:52:09.329Z,26.90
2022-12-18T22:54:40.603Z,27.88
2022-12-18T22:57:15.285Z,27.08
2022-12-18T22:59:49.442Z,26.67
2022-12-18T23:02:20.308Z,27.08
2022-12-18T23:04:49.615Z,26.55
2022-12-18T23:07:22.980Z,27.38
2022-12-18T23:09:59.667Z,27.40
2022-12-18T23:12:29.450Z,28.13
2022-12-18T23:14:57.772Z,28.70
2022-12-18T23:17:26.052Z,28.38
2022-12-18T23:19:55.047Z,27.98
2022-12-18T23:22:28.618Z,27.95
2022-12-18T23:24:58.589Z,27.67
2022-12-18T23:27:28.908Z,28.08
2022-12-18T23:30:04.372Z,27.88
2022-12-18T23:32:39.210Z,27.38
2022-12-18T23:35:08.680Z,26.88
2022-12-18T23:38:00.786Z,26.55
2022-12-18T23:40:29.311Z,26.73
2022-12-18T23:42:57.440Z,26.95
2022-12-18T23:45:25.952Z,28.25
2022-12-18T23:47:54.371Z,27.95
2022-12-18T23:50:28.989Z,27.92
2022-12-18T23:53:05.381Z,27.00
2022-12-18T23:55:40.496Z,27.27
2022-12-18T23:58:20.906Z,25.90
